Time;durP1;ratioP1;P1;durP2;ratioP2;P2;SDS_P1;SDS_P2;PMS_P1;PMS_P2;Temp;Humidity;BMP_temperature;BMP_pressure;BME280_temperature;BME280_humidity;BME280_pressure;Samples;Min_cycle;Max_cycle;Signal;HPM_P1;HPM_P2
2022/05/15 00:01:41;;;;;;;;;;;;;;;10.48;100.00;99006.16;5195571;27;19998;-60
2022/05/15 00:04:07;;;;;;;;;;;;;;;10.44;100.00;99001.81;5195069;27;19931;-60
2022/05/15 00:06:33;;;;;;;;;;;;;;;10.48;100.00;99005.38;5195001;27;19926;-60
2022/05/15 00:08:59;;;;;;;;;;;;;;;10.54;100.00;99003.91;5194991;27;19933;-61
2022/05/15 00:11:25;;;;;;;;;;;;;;;10.56;100.00;99010.63;5194983;27;19970;-60
2022/05/15 00:13:52;;;;;;;;;;;;;;;10.48;100.00;99008.91;5194767;27;19926;-60
2022/05/15 00:16:18;;;;;;;;;;;;;;;10.50;100.00;99003.88;5194759;27;19934;-60
2022/05/15 00:18:44;;;;;;;;;;;;;;;10.46;100.00;99003.03;5194883;27;19927;-61
2022/05/15 00:21:10;;;;;;;;;;;;;;;10.50;100.00;99005.81;5194973;27;19934;-60
2022/05/15 00:23:36;;;;;;;;;;;;;;;10.39;100.00;98999.34;5195042;27;19934;-60
2022/05/15 00:26:02;;;;;;;;;;;;;;;10.36;100.00;99007.19;5195047;27;19926;-60
2022/05/15 00:28:28;;;;;;;;;;;;;;;10.38;100.00;99006.00;5194887;27;20400;-60
2022/05/15 00:30:54;;;;;;;;;;;;;;;10.35;100.00;99002.84;5194700;27;20278;-60
2022/05/15 00:33:20;;;;;;;;;;;;;;;10.42;100.00;99002.16;5194836;27;19930;-60
2022/05/15 00:35:46;;;;;;;;;;;;;;;10.38;100.00;99006.00;5194598;27;20349;-60
2022/05/15 00:38:13;;;;;;;;;;;;;;;10.36;100.00;99004.44;5194743;27;19938;-60
2022/05/15 00:40:41;;;;;;;;;;;;;;;10.39;100.00;98991.94;5194563;27;19934;-60
2022/05/15 00:43:09;;;;;;;;;;;;;;;10.29;100.00;98990.59;5194373;27;19926;-60
2022/05/15 00:45:35;;;;;;;;;;;;;;;10.33;100.00;98988.72;5194363;27;19931;-60
2022/05/15 00:48:01;;;;;;;;;;;;;;;10.27;100.00;98992.16;5194332;27;20514;-60
2022/05/15 00:50:30;;;;;;;;;;;;;;;10.28;100.00;98980.81;5194682;27;20348;-60
2022/05/15 00:52:58;;;;;;;;;;;;;;;10.25;100.00;98978.75;5194155;27;19930;-60
2022/05/15 00:55:26;;;;;;;;;;;;;;;10.24;100.00;98984.63;5194641;27;20029;-60
2022/05/15 00:57:53;;;;;;;;;;;;;;;10.27;100.00;98979.22;5194199;27;20282;-60
2022/05/15 01:00:21;;;;;;;;;;;;;;;10.27;100.00;98981.97;5194403;27;19926;-60
2022/05/15 01:02:51;;;;;;;;;;;;;;;10.25;100.00;98976.03;5193521;27;19931;-60
2022/05/15 01:05:18;;;;;;;;;;;;;;;10.25;100.00;98975.25;5194278;27;19985;-60
2022/05/15 01:07:43;;;;;;;;;;;;;;;10.28;100.00;98975.31;5194169;27;19926;-60
2022/05/15 01:10:10;;;;;;;;;;;;;;;10.30;100.00;98974.97;5193966;27;19994;-60
2022/05/15 01:12:38;;;;;;;;;;;;;;;10.28;100.00;98975.31;5193969;27;19926;-59
2022/05/15 01:15:04;;;;;;;;;;;;;;;10.27;100.00;98972.97;5194059;27;20286;-60
2022/05/15 01:17:31;;;;;;;;;;;;;;;10.29;100.00;98974.16;5194014;27;19973;-60
2022/05/15 01:20:00;;;;;;;;;;;;;;;10.27;100.00;98964.75;5193789;27;19974;-60
2022/05/15 01:22:27;;;;;;;;;;;;;;;10.19;100.00;98968.47;5194090;27;19930;-60
2022/05/15 01:24:53;;;;;;;;;;;;;;;10.09;100.00;98962.44;5193799;27;19926;-60
2022/05/15 01:27:19;;;;;;;;;;;;;;;10.02;100.00;98958.81;5193939;27;20407;-60
2022/05/15 01:29:46;;;;;;;;;;;;;;;9.96;100.00;98961.06;5193617;27;19926;-60
2022/05/15 01:32:13;;;;;;;;;;;;;;;9.95;100.00;98953.22;5193843;27;19934;-60
2022/05/15 01:34:39;;;;;;;;;;;;;;;9.84;100.00;98951.09;5193601;27;19973;-60
2022/05/15 01:37:05;;;;;;;;;;;;;;;9.82;100.00;98944.41;5193692;27;20029;-60
2022/05/15 01:39:31;;;;;;;;;;;;;;;9.79;100.00;98926.75;5193529;27;19926;-60
2022/05/15 01:41:57;;;;;;;;;;;;;;;9.69;100.00;98926.56;5193478;27;19930;-60
2022/05/15 01:44:24;;;;;;;;;;;;;;;9.62;100.00;98927.22;5193933;27;19926;-60
2022/05/15 01:46:50;;;;;;;;;;;;;;;9.56;100.00;98917.75;5193491;27;19926;-60
2022/05/15 01:49:16;;;;;;;;;;;;;;;9.52;100.00;98901.25;5193812;27;19926;-60
2022/05/15 01:51:42;;;;;;;;;;;;;;;9.49;100.00;98891.03;5193547;27;19974;-60
2022/05/15 01:54:08;;;;;;;;;;;;;;;9.50;100.00;98880.91;5193529;27;20266;-60
2022/05/15 01:56:36;;;;;;;;;;;;;;;9.48;100.00;98877.72;5193363;27;19926;-60
2022/05/15 01:59:02;;;;;;;;;;;;;;;9.30;100.00;98870.00;5193643;27;20412;-60
2022/05/15 02:01:28;;;;;;;;;;;;;;;9.28;100.00;98863.31;5193362;27;19930;-60
2022/05/15 02:03:54;;;;;;;;;;;;;;;9.31;100.00;98848.91;5193200;27;20339;-60
2022/05/15 02:06:20;;;;;;;;;;;;;;;9.29;100.00;98837.53;5193356;27;20429;-60
2022/05/15 02:08:47;;;;;;;;;;;;;;;9.35;100.00;98825.13;5193211;27;19933;-60
2022/05/15 02:11:14;;;;;;;;;;;;;;;9.37;100.00;98826.34;5193533;27;19995;-59
2022/05/15 02:13:40;;;;;;;;;;;;;;;9.43;100.00;98810.44;5193223;27;19941;-60
2022/05/15 02:16:07;;;;;;;;;;;;;;;9.53;100.00;98806.25;5196387;27;20509;-60
2022/05/15 02:18:33;;;;;;;;;;;;;;;9.59;100.00;98802.84;5197064;27;19926;-60
2022/05/15 02:20:59;;;;;;;;;;;;;;;9.56;100.00;98805.53;5196810;27;20396;-60
2022/05/15 02:23:26;;;;;;;;;;;;;;;9.59;100.00;98810.28;5196692;27;20021;-60
2022/05/15 02:25:52;;;;;;;;;;;;;;;9.57;100.00;98835.28;5196786;27;19926;-60
2022/05/15 02:28:18;;;;;;;;;;;;;;;9.63;100.00;98831.09;5196680;27;19934;-60
2022/05/15 02:30:47;;;;;;;;;;;;;;;9.68;100.00;98840.16;5196729;27;19926;-60
2022/05/15 02:33:13;;;;;;;;;;;;;;;9.68;100.00;98851.88;5196437;27;20396;-60
2022/05/15 02:35:39;;;;;;;;;;;;;;;9.76;100.00;98861.78;5196563;27;20029;-60
2022/05/15 02:38:05;;;;;;;;;;;;;;;9.71;100.00;98861.31;5196483;27;19926;-59
2022/05/15 02:40:31;;;;;;;;;;;;;;;9.70;100.00;98865.22;5196444;27;20029;-60
2022/05/15 02:42:57;;;;;;;;;;;;;;;9.74;100.00;98869.56;5196432;27;19926;-59
2022/05/15 02:45:23;;;;;;;;;;;;;;;9.74;100.00;98871.53;5196482;27;19934;-60
2022/05/15 02:47:50;;;;;;;;;;;;;;;9.75;100.00;98882.09;5196705;27;19934;-60
2022/05/15 02:53:00;;;;;;;;;;;;;;;9.77;100.00;98882.53;5196433;27;20405;-60
2022/05/15 02:55:26;;;;;;;;;;;;;;;9.83;100.00;98878.34;5196169;27;19926;-60
2022/05/15 02:57:52;;;;;;;;;;;;;;;9.84;100.00;98890.06;5196197;27;19926;-60
2022/05/15 03:00:19;;;;;;;;;;;;;;;9.85;100.00;98897.13;5196209;27;19933;-60
2022/05/15 03:02:46;;;;;;;;;;;;;;;9.86;100.00;98902.25;5196091;27;19934;-60
2022/05/15 03:05:13;;;;;;;;;;;;;;;9.94;100.00;98902.38;5196064;27;19970;-60
2022/05/15 03:07:40;;;;;;;;;;;;;;;9.90;100.00;98916.78;5196375;27;19930;-60
2022/05/15 03:10:06;;;;;;;;;;;;;;;9.92;100.00;98919.16;5195804;27;19926;-61
2022/05/15 03:12:32;;;;;;;;;;;;;;;9.97;100.00;98916.09;5196136;27;19927;-60
2022/05/15 03:14:58;;;;;;;;;;;;;;;10.03;100.00;98925.59;5196117;27;19949;-60
2022/05/15 03:17:24;;;;;;;;;;;;;;;10.05;100.00;98936.97;5195928;27;20413;-60
2022/05/15 03:19:51;;;;;;;;;;;;;;;10.06;100.00;98946.78;5196128;27;20397;-60
2022/05/15 03:22:17;;;;;;;;;;;;;;;10.04;100.00;98953.78;5195879;27;19933;-60
2022/05/15 03:24:43;;;;;;;;;;;;;;;10.12;100.00;98967.19;5195915;27;19951;-60
2022/05/15 03:27:09;;;;;;;;;;;;;;;10.09;100.00;98967.16;5195733;27;19976;-60
2022/05/15 03:29:35;;;;;;;;;;;;;;;10.03;100.00;98974.09;5195911;27;20359;-60
2022/05/15 03:32:01;;;;;;;;;;;;;;;10.08;100.00;98985.53;5195781;27;19927;-60
2022/05/15 03:34:27;;;;;;;;;;;;;;;10.11;100.00;98975.81;5195409;27;19926;-60
2022/05/15 03:36:53;;;;;;;;;;;;;;;10.08;100.00;98991.00;5195591;27;19926;-60
2022/05/15 03:39:21;;;;;;;;;;;;;;;10.09;100.00;98994.53;5195621;27;19984;-60
2022/05/15 03:41:47;;;;;;;;;;;;;;;10.14;100.00;98996.97;5195735;27;19933;-60
2022/05/15 03:44:13;;;;;;;;;;;;;;;10.18;100.00;98994.31;5195479;27;19940;-60
2022/05/15 03:46:40;;;;;;;;;;;;;;;10.10;100.00;98998.88;5195538;27;20316;-60
2022/05/15 03:49:06;;;;;;;;;;;;;;;10.13;100.00;98998.16;5195429;27;19926;-60
2022/05/15 03:51:32;;;;;;;;;;;;;;;10.14;100.00;99002.47;5195581;27;19948;-60
2022/05/15 03:53:58;;;;;;;;;;;;;;;10.11;100.00;99008.66;5195194;27;20397;-60
2022/05/15 03:59:05;;;;;;;;;;;;;;;10.20;100.00;99014.69;5194211;27;19930;-59
2022/05/15 04:01:31;;;;;;;;;;;;;;;10.21;100.00;99016.28;5195070;27;19926;-60
2022/05/15 04:03:58;;;;;;;;;;;;;;;10.23;100.00;99024.13;5195192;27;19926;-60
2022/05/15 04:06:24;;;;;;;;;;;;;;;10.32;100.00;99027.44;5195188;27;19931;-60
2022/05/15 04:08:51;;;;;;;;;;;;;;;10.39;100.00;99038.50;5195267;27;20349;-60
2022/05/15 04:11:17;;;;;;;;;;;;;;;10.41;100.00;99044.44;5195370;27;20380;-60
2022/05/15 04:13:44;;;;;;;;;;;;;;;10.47;100.00;99045.72;5195135;27;20320;-60
2022/05/15 04:16:10;;;;;;;;;;;;;;;10.47;100.00;99055.88;5195119;27;19979;-60
2022/05/15 04:18:36;;;;;;;;;;;;;;;10.55;100.00;99063.06;5195311;27;19926;-60
2022/05/15 04:21:02;;;;;;;;;;;;;;;10.53;100.00;99057.13;5195244;27;19982;-60
2022/05/15 04:23:29;;;;;;;;;;;;;;;10.45;100.00;99067.19;5194912;27;20051;-60
2022/05/15 04:25:55;;;;;;;;;;;;;;;10.55;100.00;99068.53;5194862;27;19973;-60
2022/05/15 04:28:21;;;;;;;;;;;;;;;10.70;100.00;99072.31;5194596;27;19926;-60
2022/05/15 04:30:47;;;;;;;;;;;;;;;10.67;100.00;99073.03;5194607;27;19926;-60
2022/05/15 04:33:13;;;;;;;;;;;;;;;10.68;100.00;99074.63;5194520;27;19926;-60
2022/05/15 04:35:39;;;;;;;;;;;;;;;10.71;100.00;99076.63;5194829;27;19978;-60
2022/05/15 04:38:07;;;;;;;;;;;;;;;10.71;100.00;99074.69;5193579;27;19953;-60
2022/05/15 04:40:33;;;;;;;;;;;;;;;10.78;100.00;99076.72;5194635;27;19974;-60
2022/05/15 04:42:59;;;;;;;;;;;;;;;10.76;100.00;99082.59;5194410;27;19926;-60
2022/05/15 04:45:25;;;;;;;;;;;;;;;10.77;100.00;99089.66;5194558;27;19926;-60
2022/05/15 04:47:51;;;;;;;;;;;;;;;10.83;100.00;99088.19;5194379;27;19986;-60
2022/05/15 04:50:18;;;;;;;;;;;;;;;10.94;100.00;99098.53;5194532;27;19949;-60
2022/05/15 04:52:44;;;;;;;;;;;;;;;11.06;100.00;99103.78;5194290;27;19932;-60
2022/05/15 04:55:10;;;;;;;;;;;;;;;11.11;100.00;99098.00;5194265;27;19933;-60
2022/05/15 04:57:36;;;;;;;;;;;;;;;11.19;100.00;99088.69;5194090;27;19973;-60
2022/05/15 05:00:03;;;;;;;;;;;;;;;11.36;100.00;99094.81;5194464;27;19933;-60
2022/05/15 05:02:29;;;;;;;;;;;;;;;11.70;100.00;99101.16;5194462;27;20281;-60
2022/05/15 05:04:59;;;;;;;;;;;;;;;11.77;100.00;99068.28;5194183;27;19926;-60
2022/05/15 05:07:25;;;;;;;;;;;;;;;12.00;100.00;99051.69;5194194;27;19974;-60
2022/05/15 05:09:51;;;;;;;;;;;;;;;12.13;100.00;99035.69;5194072;27;19930;-60
2022/05/15 05:12:17;;;;;;;;;;;;;;;12.25;100.00;99016.97;5194015;27;20440;-60
2022/05/15 05:14:42;;;;;;;;;;;;;;;12.36;100.00;98999.75;5194038;27;19978;-60
2022/05/15 05:17:08;;;;;;;;;;;;;;;12.36;100.00;98961.28;5193902;27;19926;-60
2022/05/15 05:19:34;;;;;;;;;;;;;;;12.27;100.00;98947.09;5193913;27;20286;-61
2022/05/15 05:22:01;;;;;;;;;;;;;;;12.29;100.00;98950.22;5193944;27;19926;-60
2022/05/15 05:24:27;;;;;;;;;;;;;;;12.19;100.00;98955.25;5193799;27;19926;-60
2022/05/15 05:26:53;;;;;;;;;;;;;;;12.19;100.00;98960.75;5193580;27;19971;-60
2022/05/15 05:29:19;;;;;;;;;;;;;;;12.16;100.00;98968.97;5194223;27;19926;-60
2022/05/15 05:31:44;;;;;;;;;;;;;;;12.40;100.00;98975.88;5193933;27;19982;-60
2022/05/15 05:34:10;;;;;;;;;;;;;;;12.48;100.00;98949.97;5193819;27;19927;-60
2022/05/15 05:36:36;;;;;;;;;;;;;;;12.43;100.00;98931.91;5193748;27;19933;-60
2022/05/15 05:39:03;;;;;;;;;;;;;;;12.48;100.00;98928.00;5193804;27;20016;-60
2022/05/15 05:41:29;;;;;;;;;;;;;;;12.45;100.00;98898.50;5193502;27;19927;-60
2022/05/15 05:43:55;;;;;;;;;;;;;;;12.38;100.00;98871.75;5193793;27;20028;-61
2022/05/15 05:46:22;;;;;;;;;;;;;;;12.29;100.00;98898.00;5193644;27;20389;-60
2022/05/15 05:48:48;;;;;;;;;;;;;;;12.16;100.00;98903.84;5194279;27;20396;-60
2022/05/15 05:51:14;;;;;;;;;;;;;;;12.12;100.00;98900.25;5197249;27;19931;-60
2022/05/15 05:53:41;;;;;;;;;;;;;;;12.07;100.00;98922.59;5197120;27;19934;-60
2022/05/15 05:56:07;;;;;;;;;;;;;;;12.12;100.00;98949.72;5197151;27;20018;-60
2022/05/15 05:58:33;;;;;;;;;;;;;;;12.20;100.00;98962.34;5197180;27;19926;-60
2022/05/15 06:00:59;;;;;;;;;;;;;;;12.17;100.00;98973.31;5197348;27;19926;-60
2022/05/15 06:06:09;;;;;;;;;;;;;;;11.97;100.00;98961.78;5197346;27;19934;-60
2022/05/15 06:08:35;;;;;;;;;;;;;;;11.89;100.00;98965.59;5197026;27;19926;-60
2022/05/15 06:11:01;;;;;;;;;;;;;;;11.97;100.00;98983.75;5197135;27;19933;-60
2022/05/15 06:13:28;;;;;;;;;;;;;;;12.39;100.00;98999.78;5196867;27;19926;-61
2022/05/15 06:15:54;;;;;;;;;;;;;;;12.90;100.00;98962.44;5197035;27;19926;-60
2022/05/15 06:18:20;;;;;;;;;;;;;;;13.31;100.00;98843.84;5196879;27;19926;-60
2022/05/15 06:20:46;;;;;;;;;;;;;;;13.43;100.00;98692.03;5196871;27;19952;-60
2022/05/15 06:23:12;;;;;;;;;;;;;;;13.84;100.00;98581.34;5196973;27;19991;-60
2022/05/15 06:25:38;;;;;;;;;;;;;;;14.97;100.00;98399.63;5196930;27;19930;-61
2022/05/15 06:28:05;;;;;;;;;;;;;;;15.07;100.00;98097.81;5196743;27;19930;-61
2022/05/15 06:30:31;;;;;;;;;;;;;;;14.59;100.00;97950.06;5196824;27;19927;-60
2022/05/15 06:32:59;;;;;;;;;;;;;;;14.48;100.00;98004.59;5196610;27;19926;-60
2022/05/15 06:35:25;;;;;;;;;;;;;;;14.30;100.00;98087.59;5196522;27;20437;-60
2022/05/15 06:37:51;;;;;;;;;;;;;;;13.99;100.00;98183.25;5196690;27;20404;-60
2022/05/15 06:40:17;;;;;;;;;;;;;;;13.80;100.00;98231.50;5196508;27;19926;-60
2022/05/15 06:42:43;;;;;;;;;;;;;;;13.62;100.00;98247.41;5196533;27;19927;-61
2022/05/15 06:45:10;;;;;;;;;;;;;;;13.53;100.00;98357.22;5196420;27;19926;-60
2022/05/15 06:47:36;;;;;;;;;;;;;;;13.40;100.00;98389.97;5196361;27;19926;-60
2022/05/15 06:50:03;;;;;;;;;;;;;;;13.41;100.00;98435.59;5196266;27;19934;-61
2022/05/15 06:52:28;;;;;;;;;;;;;;;13.31;100.00;98469.47;5196560;27;19926;-60
2022/05/15 06:54:54;;;;;;;;;;;;;;;13.27;100.00;98554.03;5196360;27;19933;-60
2022/05/15 06:57:29;;;;;;;;;;;;;;;13.23;100.00;98597.25;5196419;27;20419;-60
2022/05/15 06:59:55;;;;;;;;;;;;;;;13.23;100.00;98653.09;5196250;27;19926;-60
2022/05/15 07:02:22;;;;;;;;;;;;;;;13.35;100.00;98638.16;5195650;27;19933;-60
2022/05/15 07:04:48;;;;;;;;;;;;;;;13.38;100.00;98651.13;5196312;27;19965;-60
2022/05/15 07:07:14;;;;;;;;;;;;;;;13.14;100.00;98696.75;5196070;27;19930;-60
2022/05/15 07:09:40;;;;;;;;;;;;;;;13.13;100.00;98764.75;5196046;27;19927;-60
2022/05/15 07:12:07;;;;;;;;;;;;;;;13.10;100.00;98792.28;5195966;27;20296;-60
2022/05/15 07:14:33;;;;;;;;;;;;;;;13.17;100.00;98804.09;5195961;27;19932;-60
2022/05/15 07:16:59;;;;;;;;;;;;;;;13.57;100.00;98796.66;5195685;27;19926;-60
2022/05/15 07:19:25;;;;;;;;;;;;;;;14.26;100.00;98703.59;5196271;27;19937;-60
2022/05/15 07:21:51;;;;;;;;;;;;;;;14.51;100.00;98483.66;5196016;27;19933;-60
2022/05/15 07:24:17;;;;;;;;;;;;;;;14.47;100.00;98319.38;5195759;27;20389;-60
2022/05/15 07:26:45;;;;;;;;;;;;;;;14.15;100.00;98294.91;5195825;27;19926;-60
2022/05/15 07:29:11;;;;;;;;;;;;;;;13.84;100.00;98366.47;5195813;27;20340;-60
2022/05/15 07:31:37;;;;;;;;;;;;;;;13.67;100.00;98461.03;5195690;27;19933;-60
2022/05/15 07:34:03;;;;;;;;;;;;;;;13.56;100.00;98518.91;5195503;27;20030;-60
2022/05/15 07:36:29;;;;;;;;;;;;;;;13.58;100.00;98547.63;5195719;27;19940;-60
2022/05/15 07:38:56;;;;;;;;;;;;;;;14.23;100.00;98537.03;5195623;27;19930;-60
2022/05/15 07:41:22;;;;;;;;;;;;;;;14.61;100.00;98420.53;5195526;27;20405;-61
2022/05/15 07:43:47;;;;;;;;;;;;;;;15.11;100.00;98298.50;5195332;27;19926;-60
2022/05/15 07:46:13;;;;;;;;;;;;;;;15.35;100.00;98120.59;5195505;27;19939;-60
2022/05/15 07:48:39;;;;;;;;;;;;;;;15.67;100.00;97914.81;5195246;27;20301;-61
2022/05/15 07:51:05;;;;;;;;;;;;;;;16.21;100.00;97879.16;5195320;27;19933;-61
2022/05/15 07:53:32;;;;;;;;;;;;;;;16.13;100.00;97807.91;5195282;27;19926;-60
2022/05/15 07:56:03;;;;;;;;;;;;;;;15.84;100.00;97839.00;5195543;27;19926;-61
2022/05/15 07:58:29;;;;;;;;;;;;;;;15.38;100.00;97922.91;5195236;27;19926;-60
2022/05/15 08:00:55;;;;;;;;;;;;;;;15.02;100.00;98023.78;5195116;27;20285;-61
2022/05/15 08:03:21;;;;;;;;;;;;;;;14.73;100.00;98091.72;5195295;27;19934;-60
2022/05/15 08:08:31;;;;;;;;;;;;;;;14.52;100.00;98099.09;5195268;27;20067;-60
2022/05/15 08:10:57;;;;;;;;;;;;;;;14.17;100.00;98147.22;5194991;27;19934;-61
2022/05/15 08:13:25;;;;;;;;;;;;;;;14.11;100.00;98135.09;5193456;27;19926;-61
2022/05/15 08:15:52;;;;;;;;;;;;;;;14.01;100.00;98177.34;5194960;27;19977;-60
2022/05/15 08:23:48;;;;;;;;;;;;;;;14.59;100.00;98214.06;5194868;27;19974;-61
2022/05/15 08:26:14;;;;;;;;;;;;;;;14.56;100.00;98143.97;5195023;27;19934;-60
2022/05/15 08:28:40;;;;;;;;;;;;;;;14.57;100.00;98106.91;5194663;27;20575;-60
2022/05/15 08:31:08;;;;;;;;;;;;;;;14.61;100.00;98068.25;5195066;27;19934;-60
2022/05/15 08:33:34;;;;;;;;;;;;;;;14.47;100.00;98049.91;5194491;27;19926;-61
2022/05/15 08:36:00;;;;;;;;;;;;;;;14.33;100.00;98028.84;5194779;27;19933;-60
2022/05/15 08:38:26;;;;;;;;;;;;;;;14.12;100.00;98092.56;5194436;27;20283;-60
2022/05/15 08:40:54;;;;;;;;;;;;;;;13.90;100.00;98147.16;5194483;27;20366;-60
2022/05/15 08:43:24;;;;;;;;;;;;;;;13.75;100.00;98269.72;5194838;27;20021;-60
2022/05/15 08:45:58;;;;;;;;;;;;;;;13.70;100.00;98367.34;5194618;27;19949;-60
2022/05/15 08:48:25;;;;;;;;;;;;;;;13.58;100.00;98387.09;5194723;27;19937;-60
2022/05/15 08:50:52;;;;;;;;;;;;;;;13.49;100.00;98409.56;5194210;27;19927;-60
2022/05/15 08:53:23;;;;;;;;;;;;;;;13.42;100.00;98421.41;5194614;27;19926;-60
2022/05/15 08:55:50;;;;;;;;;;;;;;;13.29;100.00;98434.06;5194439;27;19926;-60
2022/05/15 08:58:21;;;;;;;;;;;;;;;13.33;100.00;98481.66;5194627;27;19941;-61
2022/05/15 09:00:49;;;;;;;;;;;;;;;13.54;100.00;98518.53;5194297;27;19926;-60
2022/05/15 09:03:18;;;;;;;;;;;;;;;13.74;100.00;98452.72;5194260;27;19927;-61
2022/05/15 09:05:48;;;;;;;;;;;;;;;13.92;100.00;98409.28;5194076;27;20006;-60
2022/05/15 09:08:22;;;;;;;;;;;;;;;14.00;100.00;98305.31;5194292;27;19930;-61
2022/05/15 09:10:50;;;;;;;;;;;;;;;14.12;100.00;98209.09;5194258;27;19930;-61
2022/05/15 09:13:21;;;;;;;;;;;;;;;14.12;100.00;98142.16;5194063;27;19975;-61
2022/05/15 09:15:56;;;;;;;;;;;;;;;14.28;100.00;98158.88;5194424;27;19926;-61
2022/05/15 09:18:23;;;;;;;;;;;;;;;14.35;100.00;98122.94;5193939;27;19926;-61
2022/05/15 09:20:59;;;;;;;;;;;;;;;14.15;100.00;98141.34;5194275;27;19926;-60
2022/05/15 09:23:26;;;;;;;;;;;;;;;13.98;100.00;98385.63;5193772;27;20301;-60
2022/05/15 09:25:54;;;;;;;;;;;;;;;13.77;100.00;98732.91;5193752;27;19933;-60
2022/05/15 09:28:21;;;;;;;;;;;;;;;13.52;100.00;98904.44;5194423;27;19951;-60
2022/05/15 09:30:48;;;;;;;;;;;;;;;13.50;100.00;99046.50;5194151;27;19930;-60
2022/05/15 09:33:23;;;;;;;;;;;;;;;13.51;100.00;99101.19;5194095;27;19986;-60
2022/05/15 09:35:51;;;;;;;;;;;;;;;13.71;100.00;99111.91;5171935;27;20174;-60
2022/05/15 09:38:29;;;;;;;;;;;;;;;13.76;100.00;99070.19;5172759;27;19926;-60
2022/05/15 09:43:52;;;;;;;;;;;;;;;13.28;100.00;98979.53;5172770;27;19933;-60
2022/05/15 09:46:19;;;;;;;;;;;;;;;13.12;100.00;99054.91;5172823;27;19933;-60
2022/05/15 09:48:51;;;;;;;;;;;;;;;13.23;100.00;99118.31;5172441;27;19926;-60
2022/05/15 09:51:25;;;;;;;;;;;;;;;13.44;100.00;99103.91;5172784;27;19927;-60
2022/05/15 09:53:52;;;;;;;;;;;;;;;13.86;100.00;99089.53;5172468;27;19949;-60
2022/05/15 09:56:23;;;;;;;;;;;;;;;14.36;100.00;99062.06;5172734;27;20346;-60
2022/05/15 09:58:52;;;;;;;;;;;;;;;14.70;100.00;98851.22;5172476;27;19927;-60
2022/05/15 10:01:25;;;;;;;;;;;;;;;14.85;100.00;98700.16;5172477;27;19931;-60
2022/05/15 10:03:53;;;;;;;;;;;;;;;14.85;100.00;98465.59;5172162;27;19973;-60
2022/05/15 10:06:20;;;;;;;;;;;;;;;14.71;100.00;98420.41;5172581;27;19949;-60
2022/05/15 10:08:46;;;;;;;;;;;;;;;14.49;100.00;98298.44;5172302;27;19927;-60
2022/05/15 10:11:19;;;;;;;;;;;;;;;14.42;100.00;98279.25;5172212;27;19934;-60
2022/05/15 10:13:47;;;;;;;;;;;;;;;14.52;100.00;98376.88;5172386;27;19933;-60
2022/05/15 10:16:15;;;;;;;;;;;;;;;15.10;100.00;98492.94;5172075;27;19927;-61
2022/05/15 10:18:46;;;;;;;;;;;;;;;15.68;100.00;98366.72;5172476;27;20411;-60
2022/05/15 10:21:13;;;;;;;;;;;;;;;16.12;100.00;98108.44;5172376;27;19969;-60
2022/05/15 10:23:42;;;;;;;;;;;;;;;16.21;100.00;97933.69;5172488;27;19963;-60
2022/05/15 10:26:11;;;;;;;;;;;;;;;16.13;100.00;97912.97;5171935;27;19927;-60
2022/05/15 10:28:41;;;;;;;;;;;;;;;16.28;100.00;98005.41;5172095;27;19927;-60
2022/05/15 10:31:11;;;;;;;;;;;;;;;16.37;100.00;97921.84;5171958;27;19927;-61
2022/05/15 10:33:38;;;;;;;;;;;;;;;16.37;100.00;97825.03;5171841;27;19942;-60
2022/05/15 10:36:09;;;;;;;;;;;;;;;16.36;100.00;97804.91;5173263;27;20305;-61
2022/05/15 10:38:42;;;;;;;;;;;;;;;16.25;100.00;97804.41;5175441;27;20389;-61
2022/05/15 10:41:14;;;;;;;;;;;;;;;16.30;100.00;97776.22;5176039;27;19933;-61
2022/05/15 10:43:45;;;;;;;;;;;;;;;16.17;100.00;97761.56;5175381;27;20366;-61
2022/05/15 10:46:13;;;;;;;;;;;;;;;16.09;100.00;97768.50;5175724;27;19984;-60
2022/05/15 10:48:46;;;;;;;;;;;;;;;16.30;100.00;97761.63;5175212;27;20465;-61
2022/05/15 10:51:15;;;;;;;;;;;;;;;16.69;100.00;97764.06;5175414;27;20435;-61
2022/05/15 10:59:36;;;;;;;;;;;;;;;17.10;100.00;97778.31;5175390;27;19951;-60
2022/05/15 11:02:11;;;;;;;;;;;;;;;16.98;100.00;97839.97;5175029;27;19927;-61
2022/05/15 11:04:44;;;;;;;;;;;;;;;16.76;100.00;97815.69;5175562;27;19943;-61
2022/05/15 11:07:14;;;;;;;;;;;;;;;16.78;100.00;97810.47;5175203;27;19934;-60
2022/05/15 11:09:45;;;;;;;;;;;;;;;16.44;100.00;97874.63;5175018;27;20342;-61
2022/05/15 11:12:15;;;;;;;;;;;;;;;16.50;100.00;97861.81;5175230;27;19927;-61
2022/05/15 11:14:49;;;;;;;;;;;;;;;16.85;100.00;97815.78;5174788;27;19927;-61
2022/05/15 11:17:21;;;;;;;;;;;;;;;17.14;100.00;97860.03;5175118;27;19927;-61
2022/05/15 11:19:46;;;;;;;;;;;;;;;17.11;100.00;97874.75;5174838;27;19927;-61
2022/05/15 11:22:21;;;;;;;;;;;;;;;17.07;100.00;97906.56;5174874;27;20021;-61
2022/05/15 11:24:52;;;;;;;;;;;;;;;16.70;100.00;97939.94;5174798;27;19927;-60
2022/05/15 11:27:22;;;;;;;;;;;;;;;16.80;100.00;97917.97;5174616;27;20306;-61
2022/05/15 11:29:49;;;;;;;;;;;;;;;16.98;100.00;97934.09;5175288;27;20033;-61
2022/05/15 11:32:33;;;;;;;;;;;;;;;17.16;100.00;97945.47;5174974;27;19927;-61
2022/05/15 11:35:17;;;;;;;;;;;;;;;17.06;100.00;97996.34;5174810;27;19934;-61
2022/05/15 11:37:45;;;;;;;;;;;;;;;16.89;100.00;97971.50;5160344;27;19999;-60
2022/05/15 11:40:27;;;;;;;;;;;;;;;16.93;100.00;97958.34;5174548;27;19927;-61
2022/05/15 11:42:53;;;;;;;;;;;;;;;16.95;100.00;97985.56;5174648;27;19927;-60
2022/05/15 11:45:33;;;;;;;;;;;;;;;16.90;100.00;98020.09;5174698;27;19949;-61
2022/05/15 11:48:01;;;;;;;;;;;;;;;17.10;100.00;97970.13;5174232;27;19927;-60
2022/05/15 11:50:31;;;;;;;;;;;;;;;17.23;100.00;98038.63;5174615;27;19926;-61
2022/05/15 11:53:06;;;;;;;;;;;;;;;17.34;100.00;98019.72;5174471;27;19926;-61
2022/05/15 11:55:40;;;;;;;;;;;;;;;17.21;100.00;98050.16;5174137;27;19927;-60
2022/05/15 11:58:18;;;;;;;;;;;;;;;17.14;100.00;98011.56;5174231;27;19930;-60
2022/05/15 12:00:58;;;;;;;;;;;;;;;17.19;100.00;98058.09;5174148;27;19930;-60
2022/05/15 12:03:29;;;;;;;;;;;;;;;17.26;100.00;98071.78;5174663;27;20347;-61
2022/05/15 12:06:02;;;;;;;;;;;;;;;17.13;100.00;98093.09;5174460;27;19970;-61
2022/05/15 12:08:31;;;;;;;;;;;;;;;16.74;100.00;98111.41;5173956;27;19930;-60
2022/05/15 12:10:58;;;;;;;;;;;;;;;16.69;100.00;98065.69;5174276;27;19979;-60
2022/05/15 12:13:46;;;;;;;;;;;;;;;16.41;100.00;98067.13;5173872;27;19931;-61
2022/05/15 12:16:22;;;;;;;;;;;;;;;16.33;100.00;98087.88;5167538;27;19927;-60
2022/05/15 12:18:53;;;;;;;;;;;;;;;16.12;100.00;98078.03;5174148;27;19927;-60
2022/05/15 12:21:23;;;;;;;;;;;;;;;16.00;100.00;98081.47;5173823;27;20444;-60
2022/05/15 12:26:35;;;;;;;;;;;;;;;15.35;100.00;98164.78;5172979;27;19927;-60
2022/05/15 12:29:05;;;;;;;;;;;;;;;15.10;100.00;98239.75;5174119;27;19927;-60
2022/05/15 12:31:33;;;;;;;;;;;;;;;14.93;100.00;98260.13;5173811;27;19934;-60
2022/05/15 12:34:05;;;;;;;;;;;;;;;14.61;100.00;98258.56;5173826;27;19926;-60
2022/05/15 12:36:33;;;;;;;;;;;;;;;14.61;100.00;98255.81;5173511;27;19962;-60
2022/05/15 12:39:00;;;;;;;;;;;;;;;14.69;100.00;98290.34;5173796;27;20313;-61
2022/05/15 12:41:27;;;;;;;;;;;;;;;14.86;100.00;98304.34;5173558;27;19938;-60
2022/05/15 12:43:54;;;;;;;;;;;;;;;15.12;100.00;98287.03;5173565;27;19927;-60
2022/05/15 12:46:24;;;;;;;;;;;;;;;15.16;100.00;98298.00;5173442;27;19926;-60
2022/05/15 12:48:50;;;;;;;;;;;;;;;15.42;100.00;98271.59;5173580;27;19949;-60
2022/05/15 12:51:24;;;;;;;;;;;;;;;15.59;100.00;98251.16;5173374;27;19927;-60
2022/05/15 12:53:49;;;;;;;;;;;;;;;15.80;100.00;98232.72;5173354;27;19927;-60
2022/05/15 12:56:17;;;;;;;;;;;;;;;15.82;100.00;98247.66;5173706;27;20407;-60
2022/05/15 12:58:46;;;;;;;;;;;;;;;15.62;100.00;98279.94;5172527;27;20320;-60
2022/05/15 13:01:13;;;;;;;;;;;;;;;15.43;100.00;98289.75;5173588;27;20412;-60
2022/05/15 13:03:40;;;;;;;;;;;;;;;15.42;100.00;98301.97;5173245;27;19937;-60
2022/05/15 13:06:07;;;;;;;;;;;;;;;15.62;100.00;98291.00;5173069;27;20397;-60
2022/05/15 13:08:43;;;;;;;;;;;;;;;15.84;100.00;98295.00;5173323;27;20457;-60